Terminal Aerodrome Forecast
Issued by NWS Blacksburg, VA

Current Version | Previous Version | Graphics & Text | Print | Product List | Glossary On
Versions: 1 2 3 4 5 6 7 8 9 10 11 12 13 14 15 16 17
000
FTUS41 KRNK 231140
TAFBLF
TAF
KBLF 231140Z 2312/2412 16005KT P6SM SCT005
      TEMPO 2312/2314 3SM BR OVC005
     FM231400 VRB06KT P6SM BKN015 BKN090
     FM231600 23008G16KT P6SM SCT035 BKN100
     FM240000 21007KT P6SM BKN050=

USA.gov is the U.S. government's official web portal to all federal, state and local government web resources and services.